sensor_id;sensor_type;location;lat;lon;timestamp;P1;durP1;ratioP1;P2;durP2;ratioP2
7575;SDS011;3829;50.798;4.358;2023-02-14T00:01:44;40.70;;;20.20;;
7575;SDS011;3829;50.798;4.358;2023-02-14T00:04:10;48.07;;;21.50;;
7575;SDS011;3829;50.798;4.358;2023-02-14T00:06:36;45.87;;;20.30;;
7575;SDS011;3829;50.798;4.358;2023-02-14T00:09:06;45.07;;;21.13;;
7575;SDS011;3829;50.798;4.358;2023-02-14T00:11:35;44.07;;;21.10;;
7575;SDS011;3829;50.798;4.358;2023-02-14T00:14:01;38.57;;;21.17;;
7575;SDS011;3829;50.798;4.358;2023-02-14T00:16:45;44.17;;;20.80;;
7575;SDS011;3829;50.798;4.358;2023-02-14T00:19:11;43.83;;;20.33;;
7575;SDS011;3829;50.798;4.358;2023-02-14T00:21:38;44.63;;;22.07;;
7575;SDS011;3829;50.798;4.358;2023-02-14T00:24:06;41.17;;;20.67;;
7575;SDS011;3829;50.798;4.358;2023-02-14T00:26:40;39.70;;;20.03;;
7575;SDS011;3829;50.798;4.358;2023-02-14T00:29:08;44.00;;;21.47;;
7575;SDS011;3829;50.798;4.358;2023-02-14T00:31:35;42.83;;;20.83;;
7575;SDS011;3829;50.798;4.358;2023-02-14T00:34:01;39.87;;;20.73;;
7575;SDS011;3829;50.798;4.358;2023-02-14T00:36:28;36.77;;;20.30;;
7575;SDS011;3829;50.798;4.358;2023-02-14T00:38:53;43.60;;;20.63;;
7575;SDS011;3829;50.798;4.358;2023-02-14T00:41:19;40.10;;;19.83;;
7575;SDS011;3829;50.798;4.358;2023-02-14T00:43:46;41.80;;;20.27;;
7575;SDS011;3829;50.798;4.358;2023-02-14T00:46:12;39.17;;;20.23;;
7575;SDS011;3829;50.798;4.358;2023-02-14T00:48:38;44.43;;;21.40;;
7575;SDS011;3829;50.798;4.358;2023-02-14T00:51:04;45.30;;;21.63;;
7575;SDS011;3829;50.798;4.358;2023-02-14T00:53:29;44.23;;;22.97;;
7575;SDS011;3829;50.798;4.358;2023-02-14T00:55:55;47.43;;;20.90;;
7575;SDS011;3829;50.798;4.358;2023-02-14T00:58:21;47.13;;;23.13;;
7575;SDS011;3829;50.798;4.358;2023-02-14T01:00:46;45.87;;;21.70;;
7575;SDS011;3829;50.798;4.358;2023-02-14T01:03:12;43.07;;;21.40;;
7575;SDS011;3829;50.798;4.358;2023-02-14T01:05:37;47.77;;;21.67;;
7575;SDS011;3829;50.798;4.358;2023-02-14T01:08:03;50.23;;;21.07;;
7575;SDS011;3829;50.798;4.358;2023-02-14T01:10:29;43.87;;;20.47;;
7575;SDS011;3829;50.798;4.358;2023-02-14T01:12:55;47.17;;;22.93;;
7575;SDS011;3829;50.798;4.358;2023-02-14T01:15:21;47.27;;;21.67;;
7575;SDS011;3829;50.798;4.358;2023-02-14T01:17:46;49.93;;;23.17;;
7575;SDS011;3829;50.798;4.358;2023-02-14T01:20:12;47.53;;;21.97;;
7575;SDS011;3829;50.798;4.358;2023-02-14T01:22:38;41.40;;;21.53;;
7575;SDS011;3829;50.798;4.358;2023-02-14T01:25:04;38.97;;;20.90;;
7575;SDS011;3829;50.798;4.358;2023-02-14T01:27:30;41.53;;;19.63;;
7575;SDS011;3829;50.798;4.358;2023-02-14T01:29:56;38.77;;;19.10;;
7575;SDS011;3829;50.798;4.358;2023-02-14T01:32:21;39.57;;;19.97;;
7575;SDS011;3829;50.798;4.358;2023-02-14T01:34:47;45.07;;;20.17;;
7575;SDS011;3829;50.798;4.358;2023-02-14T01:37:13;41.43;;;20.60;;
7575;SDS011;3829;50.798;4.358;2023-02-14T01:39:38;40.73;;;18.73;;
7575;SDS011;3829;50.798;4.358;2023-02-14T01:42:05;36.97;;;19.23;;
7575;SDS011;3829;50.798;4.358;2023-02-14T01:46:56;42.30;;;21.43;;
7575;SDS011;3829;50.798;4.358;2023-02-14T01:49:25;37.80;;;19.33;;
7575;SDS011;3829;50.798;4.358;2023-02-14T01:51:55;46.23;;;20.07;;
7575;SDS011;3829;50.798;4.358;2023-02-14T01:54:45;46.03;;;20.80;;
7575;SDS011;3829;50.798;4.358;2023-02-14T01:57:23;47.33;;;20.27;;
7575;SDS011;3829;50.798;4.358;2023-02-14T01:59:56;41.27;;;19.00;;
7575;SDS011;3829;50.798;4.358;2023-02-14T02:02:44;37.30;;;18.53;;
7575;SDS011;3829;50.798;4.358;2023-02-14T02:05:10;41.07;;;19.10;;
7575;SDS011;3829;50.798;4.358;2023-02-14T02:07:36;42.27;;;20.87;;
7575;SDS011;3829;50.798;4.358;2023-02-14T02:10:03;42.43;;;19.53;;
7575;SDS011;3829;50.798;4.358;2023-02-14T02:12:30;36.90;;;17.43;;
7575;SDS011;3829;50.798;4.358;2023-02-14T02:14:59;41.67;;;19.10;;
7575;SDS011;3829;50.798;4.358;2023-02-14T02:31:45;42.83;;;19.07;;
7575;SDS011;3829;50.798;4.358;2023-02-14T02:47:30;38.20;;;17.07;;
7575;SDS011;3829;50.798;4.358;2023-02-14T02:50:12;40.53;;;17.57;;
7575;SDS011;3829;50.798;4.358;2023-02-14T02:55:56;42.63;;;18.60;;
7575;SDS011;3829;50.798;4.358;2023-02-14T02:58:45;39.93;;;19.33;;
7575;SDS011;3829;50.798;4.358;2023-02-14T03:01:17;46.77;;;18.50;;
7575;SDS011;3829;50.798;4.358;2023-02-14T03:03:47;40.23;;;18.43;;
7575;SDS011;3829;50.798;4.358;2023-02-14T03:06:36;42.20;;;18.07;;
7575;SDS011;3829;50.798;4.358;2023-02-14T03:09:11;38.83;;;19.07;;
7575;SDS011;3829;50.798;4.358;2023-02-14T03:14:47;36.90;;;17.33;;
7575;SDS011;3829;50.798;4.358;2023-02-14T03:20:20;37.97;;;17.73;;
7575;SDS011;3829;50.798;4.358;2023-02-14T03:22:57;34.73;;;16.13;;
7575;SDS011;3829;50.798;4.358;2023-02-14T03:31:12;36.20;;;17.30;;
7575;SDS011;3829;50.798;4.358;2023-02-14T03:34:15;37.77;;;16.17;;
7575;SDS011;3829;50.798;4.358;2023-02-14T03:37:00;36.57;;;17.03;;
7575;SDS011;3829;50.798;4.358;2023-02-14T03:42:17;39.43;;;18.37;;
7575;SDS011;3829;50.798;4.358;2023-02-14T03:44:48;38.40;;;18.20;;
7575;SDS011;3829;50.798;4.358;2023-02-14T03:47:18;42.97;;;19.30;;
7575;SDS011;3829;50.798;4.358;2023-02-14T03:49:51;37.97;;;18.30;;
7575;SDS011;3829;50.798;4.358;2023-02-14T03:52:21;37.40;;;18.07;;
7575;SDS011;3829;50.798;4.358;2023-02-14T03:54:49;35.37;;;18.30;;
7575;SDS011;3829;50.798;4.358;2023-02-14T03:57:23;37.90;;;16.90;;
7575;SDS011;3829;50.798;4.358;2023-02-14T03:59:51;45.97;;;19.13;;
7575;SDS011;3829;50.798;4.358;2023-02-14T04:04:47;34.40;;;17.10;;
7575;SDS011;3829;50.798;4.358;2023-02-14T04:07:15;36.13;;;17.70;;
7575;SDS011;3829;50.798;4.358;2023-02-14T04:09:42;34.73;;;17.43;;
7575;SDS011;3829;50.798;4.358;2023-02-14T04:12:08;36.60;;;18.30;;
7575;SDS011;3829;50.798;4.358;2023-02-14T04:14:34;31.67;;;16.17;;
7575;SDS011;3829;50.798;4.358;2023-02-14T04:17:00;36.37;;;16.93;;
7575;SDS011;3829;50.798;4.358;2023-02-14T04:19:44;38.00;;;16.33;;
7575;SDS011;3829;50.798;4.358;2023-02-14T04:22:10;42.80;;;17.67;;
7575;SDS011;3829;50.798;4.358;2023-02-14T04:24:36;36.53;;;17.93;;
7575;SDS011;3829;50.798;4.358;2023-02-14T04:27:02;36.27;;;17.67;;
7575;SDS011;3829;50.798;4.358;2023-02-14T04:29:40;35.07;;;17.53;;
7575;SDS011;3829;50.798;4.358;2023-02-14T04:32:11;38.23;;;16.53;;
7575;SDS011;3829;50.798;4.358;2023-02-14T04:34:42;34.73;;;16.43;;
7575;SDS011;3829;50.798;4.358;2023-02-14T04:37:08;35.80;;;16.43;;
7575;SDS011;3829;50.798;4.358;2023-02-14T04:39:34;37.70;;;17.60;;
7575;SDS011;3829;50.798;4.358;2023-02-14T04:42:00;35.77;;;16.53;;
7575;SDS011;3829;50.798;4.358;2023-02-14T04:44:26;40.93;;;17.10;;
7575;SDS011;3829;50.798;4.358;2023-02-14T04:46:52;34.10;;;15.93;;
7575;SDS011;3829;50.798;4.358;2023-02-14T04:49:17;40.07;;;16.40;;
7575;SDS011;3829;50.798;4.358;2023-02-14T04:51:43;32.97;;;16.33;;
7575;SDS011;3829;50.798;4.358;2023-02-14T04:54:09;31.43;;;16.70;;
7575;SDS011;3829;50.798;4.358;2023-02-14T04:56:34;33.97;;;16.20;;
7575;SDS011;3829;50.798;4.358;2023-02-14T04:59:00;30.67;;;15.07;;
7575;SDS011;3829;50.798;4.358;2023-02-14T05:01:26;30.37;;;15.57;;
7575;SDS011;3829;50.798;4.358;2023-02-14T05:03:51;33.53;;;16.40;;
7575;SDS011;3829;50.798;4.358;2023-02-14T05:06:17;27.27;;;15.30;;
7575;SDS011;3829;50.798;4.358;2023-02-14T05:08:42;35.60;;;15.40;;
7575;SDS011;3829;50.798;4.358;2023-02-14T05:11:08;35.70;;;15.77;;
7575;SDS011;3829;50.798;4.358;2023-02-14T05:13:34;30.77;;;15.27;;
7575;SDS011;3829;50.798;4.358;2023-02-14T05:15:59;29.57;;;15.57;;
7575;SDS011;3829;50.798;4.358;2023-02-14T05:18:25;29.37;;;15.10;;
7575;SDS011;3829;50.798;4.358;2023-02-14T05:20:51;31.53;;;16.10;;
7575;SDS011;3829;50.798;4.358;2023-02-14T05:23:18;29.67;;;14.80;;
7575;SDS011;3829;50.798;4.358;2023-02-14T05:25:46;29.67;;;14.90;;
7575;SDS011;3829;50.798;4.358;2023-02-14T05:28:12;33.43;;;14.67;;
7575;SDS011;3829;50.798;4.358;2023-02-14T05:30:39;30.30;;;14.57;;
7575;SDS011;3829;50.798;4.358;2023-02-14T05:33:05;31.43;;;14.13;;
7575;SDS011;3829;50.798;4.358;2023-02-14T05:35:31;28.80;;;14.27;;
7575;SDS011;3829;50.798;4.358;2023-02-14T05:37:57;30.37;;;15.33;;
7575;SDS011;3829;50.798;4.358;2023-02-14T05:40:22;29.63;;;15.33;;
7575;SDS011;3829;50.798;4.358;2023-02-14T05:42:48;33.23;;;14.73;;
7575;SDS011;3829;50.798;4.358;2023-02-14T05:45:15;24.90;;;14.33;;
7575;SDS011;3829;50.798;4.358;2023-02-14T05:47:41;26.83;;;13.43;;
7575;SDS011;3829;50.798;4.358;2023-02-14T05:50:07;31.97;;;15.13;;
7575;SDS011;3829;50.798;4.358;2023-02-14T05:52:32;29.40;;;14.23;;
7575;SDS011;3829;50.798;4.358;2023-02-14T05:54:58;30.33;;;14.50;;
7575;SDS011;3829;50.798;4.358;2023-02-14T05:57:24;30.73;;;15.27;;
7575;SDS011;3829;50.798;4.358;2023-02-14T05:59:50;34.90;;;15.60;;
7575;SDS011;3829;50.798;4.358;2023-02-14T06:02:15;33.20;;;15.97;;
7575;SDS011;3829;50.798;4.358;2023-02-14T06:04:41;29.33;;;15.10;;
7575;SDS011;3829;50.798;4.358;2023-02-14T06:07:06;29.77;;;14.87;;
7575;SDS011;3829;50.798;4.358;2023-02-14T06:09:32;29.47;;;14.17;;
7575;SDS011;3829;50.798;4.358;2023-02-14T06:11:58;33.70;;;15.10;;
7575;SDS011;3829;50.798;4.358;2023-02-14T06:14:23;33.07;;;15.20;;
7575;SDS011;3829;50.798;4.358;2023-02-14T06:16:49;27.13;;;14.50;;
7575;SDS011;3829;50.798;4.358;2023-02-14T06:19:15;28.97;;;14.87;;
7575;SDS011;3829;50.798;4.358;2023-02-14T06:21:40;29.47;;;13.97;;
7575;SDS011;3829;50.798;4.358;2023-02-14T06:24:06;30.20;;;14.53;;
7575;SDS011;3829;50.798;4.358;2023-02-14T06:26:32;34.20;;;16.40;;
7575;SDS011;3829;50.798;4.358;2023-02-14T06:29:00;33.37;;;15.47;;
7575;SDS011;3829;50.798;4.358;2023-02-14T06:31:27;30.07;;;14.97;;
7575;SDS011;3829;50.798;4.358;2023-02-14T06:33:53;35.97;;;16.80;;
7575;SDS011;3829;50.798;4.358;2023-02-14T06:36:20;41.03;;;17.03;;
7575;SDS011;3829;50.798;4.358;2023-02-14T06:38:47;31.13;;;15.93;;
7575;SDS011;3829;50.798;4.358;2023-02-14T06:41:13;30.63;;;15.23;;
7575;SDS011;3829;50.798;4.358;2023-02-14T06:43:41;32.00;;;15.97;;
7575;SDS011;3829;50.798;4.358;2023-02-14T06:46:07;39.50;;;15.30;;
7575;SDS011;3829;50.798;4.358;2023-02-14T06:48:32;37.50;;;17.00;;
7575;SDS011;3829;50.798;4.358;2023-02-14T06:50:58;37.53;;;16.23;;
7575;SDS011;3829;50.798;4.358;2023-02-14T06:53:24;33.37;;;16.70;;
7575;SDS011;3829;50.798;4.358;2023-02-14T06:55:50;39.83;;;16.80;;
7575;SDS011;3829;50.798;4.358;2023-02-14T06:58:15;36.90;;;16.00;;
7575;SDS011;3829;50.798;4.358;2023-02-14T07:00:41;38.30;;;16.60;;
7575;SDS011;3829;50.798;4.358;2023-02-14T07:03:07;35.60;;;15.83;;
7575;SDS011;3829;50.798;4.358;2023-02-14T07:05:32;35.90;;;17.17;;
7575;SDS011;3829;50.798;4.358;2023-02-14T07:07:58;36.27;;;15.83;;
7575;SDS011;3829;50.798;4.358;2023-02-14T07:10:24;33.60;;;16.80;;
7575;SDS011;3829;50.798;4.358;2023-02-14T07:12:49;36.73;;;17.03;;
7575;SDS011;3829;50.798;4.358;2023-02-14T07:15:15;38.53;;;17.73;;
7575;SDS011;3829;50.798;4.358;2023-02-14T07:17:41;30.97;;;16.20;;
7575;SDS011;3829;50.798;4.358;2023-02-14T07:20:08;39.33;;;18.40;;
7575;SDS011;3829;50.798;4.358;2023-02-14T07:22:35;39.10;;;17.73;;
7575;SDS011;3829;50.798;4.358;2023-02-14T07:25:01;37.20;;;18.23;;
7575;SDS011;3829;50.798;4.358;2023-02-14T07:27:28;38.67;;;17.80;;
7575;SDS011;3829;50.798;4.358;2023-02-14T07:29:54;42.13;;;19.00;;
7575;SDS011;3829;50.798;4.358;2023-02-14T07:32:20;35.87;;;18.63;;
7575;SDS011;3829;50.798;4.358;2023-02-14T07:34:47;36.77;;;18.87;;
7575;SDS011;3829;50.798;4.358;2023-02-14T07:37:13;43.43;;;18.33;;
7575;SDS011;3829;50.798;4.358;2023-02-14T07:39:40;44.47;;;18.60;;
7575;SDS011;3829;50.798;4.358;2023-02-14T07:42:06;43.07;;;18.93;;
7575;SDS011;3829;50.798;4.358;2023-02-14T07:44:32;38.23;;;17.73;;
7575;SDS011;3829;50.798;4.358;2023-02-14T07:46:57;46.37;;;20.73;;
7575;SDS011;3829;50.798;4.358;2023-02-14T07:49:23;45.50;;;21.63;;
7575;SDS011;3829;50.798;4.358;2023-02-14T07:51:49;43.03;;;20.40;;
7575;SDS011;3829;50.798;4.358;2023-02-14T07:54:14;45.60;;;20.90;;
7575;SDS011;3829;50.798;4.358;2023-02-14T07:56:40;38.73;;;19.30;;
7575;SDS011;3829;50.798;4.358;2023-02-14T07:59:05;40.57;;;21.13;;
7575;SDS011;3829;50.798;4.358;2023-02-14T08:01:31;43.57;;;20.00;;
7575;SDS011;3829;50.798;4.358;2023-02-14T08:03:56;42.07;;;20.13;;
7575;SDS011;3829;50.798;4.358;2023-02-14T08:06:22;42.63;;;19.60;;
7575;SDS011;3829;50.798;4.358;2023-02-14T08:08:50;42.53;;;19.90;;
7575;SDS011;3829;50.798;4.358;2023-02-14T08:11:15;44.80;;;18.73;;
7575;SDS011;3829;50.798;4.358;2023-02-14T08:14:01;39.70;;;20.03;;
7575;SDS011;3829;50.798;4.358;2023-02-14T08:16:29;46.93;;;19.37;;
7575;SDS011;3829;50.798;4.358;2023-02-14T08:18:56;45.70;;;20.33;;
7575;SDS011;3829;50.798;4.358;2023-02-14T08:21:21;46.67;;;20.10;;
7575;SDS011;3829;50.798;4.358;2023-02-14T08:23:47;40.27;;;18.97;;
7575;SDS011;3829;50.798;4.358;2023-02-14T08:26:13;43.47;;;19.57;;
7575;SDS011;3829;50.798;4.358;2023-02-14T08:28:38;36.30;;;17.83;;
7575;SDS011;3829;50.798;4.358;2023-02-14T08:31:04;46.07;;;20.97;;
7575;SDS011;3829;50.798;4.358;2023-02-14T08:33:30;44.80;;;20.23;;
7575;SDS011;3829;50.798;4.358;2023-02-14T08:35:56;39.27;;;19.53;;
7575;SDS011;3829;50.798;4.358;2023-02-14T08:38:22;41.20;;;20.47;;
7575;SDS011;3829;50.798;4.358;2023-02-14T08:40:47;40.53;;;19.00;;
7575;SDS011;3829;50.798;4.358;2023-02-14T08:43:13;42.07;;;20.20;;
7575;SDS011;3829;50.798;4.358;2023-02-14T08:45:39;36.03;;;19.10;;
7575;SDS011;3829;50.798;4.358;2023-02-14T08:48:09;35.77;;;17.77;;
7575;SDS011;3829;50.798;4.358;2023-02-14T08:50:36;39.83;;;18.67;;
7575;SDS011;3829;50.798;4.358;2023-02-14T08:53:09;41.77;;;18.33;;
7575;SDS011;3829;50.798;4.358;2023-02-14T08:55:36;38.67;;;18.43;;
7575;SDS011;3829;50.798;4.358;2023-02-14T08:58:02;36.03;;;17.40;;
7575;SDS011;3829;50.798;4.358;2023-02-14T09:00:28;40.97;;;19.20;;
7575;SDS011;3829;50.798;4.358;2023-02-14T09:02:54;41.47;;;18.60;;
7575;SDS011;3829;50.798;4.358;2023-02-14T09:05:20;43.07;;;18.97;;
7575;SDS011;3829;50.798;4.358;2023-02-14T09:07:47;38.80;;;18.90;;
7575;SDS011;3829;50.798;4.358;2023-02-14T09:10:14;39.07;;;17.93;;
7575;SDS011;3829;50.798;4.358;2023-02-14T09:12:40;37.63;;;17.67;;
7575;SDS011;3829;50.798;4.358;2023-02-14T09:15:07;34.03;;;17.83;;
7575;SDS011;3829;50.798;4.358;2023-02-14T09:17:34;34.73;;;17.80;;
7575;SDS011;3829;50.798;4.358;2023-02-14T09:20:00;48.57;;;19.00;;
7575;SDS011;3829;50.798;4.358;2023-02-14T09:22:26;38.30;;;18.23;;
7575;SDS011;3829;50.798;4.358;2023-02-14T09:24:51;32.17;;;17.47;;
7575;SDS011;3829;50.798;4.358;2023-02-14T09:27:17;36.80;;;18.13;;
7575;SDS011;3829;50.798;4.358;2023-02-14T09:29:42;33.80;;;17.60;;
7575;SDS011;3829;50.798;4.358;2023-02-14T09:32:08;37.93;;;17.13;;
7575;SDS011;3829;50.798;4.358;2023-02-14T09:34:34;35.07;;;17.00;;
7575;SDS011;3829;50.798;4.358;2023-02-14T09:37:00;36.63;;;17.90;;
7575;SDS011;3829;50.798;4.358;2023-02-14T09:39:25;39.43;;;16.57;;
7575;SDS011;3829;50.798;4.358;2023-02-14T09:42:25;34.73;;;17.17;;
7575;SDS011;3829;50.798;4.358;2023-02-14T09:45:11;40.50;;;18.30;;
7575;SDS011;3829;50.798;4.358;2023-02-14T09:53:02;35.67;;;17.23;;
7575;SDS011;3829;50.798;4.358;2023-02-14T09:55:46;37.53;;;17.80;;
7575;SDS011;3829;50.798;4.358;2023-02-14T09:58:18;36.07;;;17.93;;
7575;SDS011;3829;50.798;4.358;2023-02-14T10:00:53;33.20;;;17.37;;
7575;SDS011;3829;50.798;4.358;2023-02-14T10:11:37;38.17;;;18.47;;
7575;SDS011;3829;50.798;4.358;2023-02-14T10:14:08;39.57;;;18.53;;
7575;SDS011;3829;50.798;4.358;2023-02-14T10:16:42;31.70;;;17.10;;
7575;SDS011;3829;50.798;4.358;2023-02-14T10:19:20;35.07;;;17.37;;
7575;SDS011;3829;50.798;4.358;2023-02-14T10:27:08;38.87;;;19.10;;
7575;SDS011;3829;50.798;4.358;2023-02-14T10:29:50;34.60;;;17.67;;
7575;SDS011;3829;50.798;4.358;2023-02-14T10:32:17;37.67;;;18.57;;
7575;SDS011;3829;50.798;4.358;2023-02-14T10:35:00;34.90;;;17.30;;
7575;SDS011;3829;50.798;4.358;2023-02-14T10:37:49;36.40;;;17.77;;
7575;SDS011;3829;50.798;4.358;2023-02-14T10:40:44;35.97;;;18.07;;
7575;SDS011;3829;50.798;4.358;2023-02-14T10:46:18;33.93;;;16.83;;
7575;SDS011;3829;50.798;4.358;2023-02-14T10:51:49;37.10;;;17.17;;
7575;SDS011;3829;50.798;4.358;2023-02-14T10:54:37;35.03;;;17.53;;
7575;SDS011;3829;50.798;4.358;2023-02-14T11:00:03;33.87;;;19.07;;
7575;SDS011;3829;50.798;4.358;2023-02-14T11:02:33;32.53;;;17.63;;
7575;SDS011;3829;50.798;4.358;2023-02-14T11:05:07;32.80;;;17.83;;
7575;SDS011;3829;50.798;4.358;2023-02-14T11:07:43;37.20;;;17.83;;
7575;SDS011;3829;50.798;4.358;2023-02-14T11:10:10;36.03;;;17.57;;
7575;SDS011;3829;50.798;4.358;2023-02-14T11:12:38;36.80;;;18.67;;
7575;SDS011;3829;50.798;4.358;2023-02-14T11:15:09;37.60;;;18.80;;
7575;SDS011;3829;50.798;4.358;2023-02-14T11:17:38;35.30;;;19.53;;
7575;SDS011;3829;50.798;4.358;2023-02-14T11:20:27;38.97;;;18.27;;
7575;SDS011;3829;50.798;4.358;2023-02-14T11:22:56;37.73;;;18.90;;
7575;SDS011;3829;50.798;4.358;2023-02-14T11:25:23;37.17;;;17.97;;
7575;SDS011;3829;50.798;4.358;2023-02-14T11:27:57;33.57;;;18.33;;
7575;SDS011;3829;50.798;4.358;2023-02-14T11:30:41;34.20;;;17.83;;
7575;SDS011;3829;50.798;4.358;2023-02-14T11:33:21;37.60;;;19.97;;
7575;SDS011;3829;50.798;4.358;2023-02-14T11:35:57;40.13;;;20.57;;
7575;SDS011;3829;50.798;4.358;2023-02-14T11:38:28;38.57;;;19.17;;
7575;SDS011;3829;50.798;4.358;2023-02-14T11:40:59;40.43;;;18.93;;
7575;SDS011;3829;50.798;4.358;2023-02-14T11:43:36;34.03;;;18.77;;
7575;SDS011;3829;50.798;4.358;2023-02-14T11:54:02;36.63;;;19.27;;
7575;SDS011;3829;50.798;4.358;2023-02-14T11:56:43;36.33;;;18.43;;
7575;SDS011;3829;50.798;4.358;2023-02-14T12:01:52;36.10;;;18.70;;
7575;SDS011;3829;50.798;4.358;2023-02-14T12:04:20;36.70;;;18.77;;
7575;SDS011;3829;50.798;4.358;2023-02-14T12:07:31;40.00;;;18.73;;
7575;SDS011;3829;50.798;4.358;2023-02-14T12:10:05;40.67;;;19.97;;
7575;SDS011;3829;50.798;4.358;2023-02-14T12:12:31;34.93;;;17.97;;
7575;SDS011;3829;50.798;4.358;2023-02-14T12:17:49;33.93;;;18.20;;
7575;SDS011;3829;50.798;4.358;2023-02-14T12:20:26;41.47;;;20.80;;
7575;SDS011;3829;50.798;4.358;2023-02-14T12:28:55;37.90;;;19.60;;
7575;SDS011;3829;50.798;4.358;2023-02-14T12:31:25;39.37;;;20.20;;
7575;SDS011;3829;50.798;4.358;2023-02-14T12:33:50;45.53;;;20.27;;
7575;SDS011;3829;50.798;4.358;2023-02-14T12:39:12;36.23;;;19.60;;
7575;SDS011;3829;50.798;4.358;2023-02-14T12:44:54;39.63;;;21.80;;
7575;SDS011;3829;50.798;4.358;2023-02-14T12:53:06;34.20;;;18.50;;
7575;SDS011;3829;50.798;4.358;2023-02-14T12:55:40;45.20;;;19.87;;
7575;SDS011;3829;50.798;4.358;2023-02-14T12:58:48;39.70;;;19.80;;
7575;SDS011;3829;50.798;4.358;2023-02-14T13:06:38;41.30;;;20.07;;
7575;SDS011;3829;50.798;4.358;2023-02-14T13:12:20;39.33;;;18.87;;
7575;SDS011;3829;50.798;4.358;2023-02-14T13:15:16;38.73;;;18.40;;
7575;SDS011;3829;50.798;4.358;2023-02-14T13:20:58;41.70;;;18.60;;
7575;SDS011;3829;50.798;4.358;2023-02-14T13:23:40;42.10;;;19.93;;
7575;SDS011;3829;50.798;4.358;2023-02-14T13:26:11;40.60;;;19.17;;
7575;SDS011;3829;50.798;4.358;2023-02-14T13:29:00;36.83;;;18.60;;
7575;SDS011;3829;50.798;4.358;2023-02-14T13:31:29;37.53;;;19.20;;
7575;SDS011;3829;50.798;4.358;2023-02-14T13:33:56;37.97;;;20.03;;
7575;SDS011;3829;50.798;4.358;2023-02-14T13:36:47;44.87;;;20.53;;
7575;SDS011;3829;50.798;4.358;2023-02-14T13:39:18;46.63;;;20.43;;
7575;SDS011;3829;50.798;4.358;2023-02-14T13:41:50;39.30;;;19.63;;
7575;SDS011;3829;50.798;4.358;2023-02-14T13:49:58;34.77;;;17.50;;
7575;SDS011;3829;50.798;4.358;2023-02-14T13:52:38;39.40;;;18.13;;
7575;SDS011;3829;50.798;4.358;2023-02-14T13:57:59;35.77;;;20.10;;
7575;SDS011;3829;50.798;4.358;2023-02-14T14:03:06;38.03;;;19.23;;
7575;SDS011;3829;50.798;4.358;2023-02-14T14:05:44;36.80;;;18.30;;
7575;SDS011;3829;50.798;4.358;2023-02-14T14:16:25;38.97;;;18.00;;
7575;SDS011;3829;50.798;4.358;2023-02-14T14:21:40;38.13;;;19.43;;
7575;SDS011;3829;50.798;4.358;2023-02-14T14:26:48;38.13;;;21.07;;
7575;SDS011;3829;50.798;4.358;2023-02-14T14:29:18;35.83;;;19.20;;
7575;SDS011;3829;50.798;4.358;2023-02-14T14:32:09;38.60;;;20.53;;
7575;SDS011;3829;50.798;4.358;2023-02-14T14:34:36;38.47;;;19.93;;
7575;SDS011;3829;50.798;4.358;2023-02-14T14:37:06;35.20;;;20.07;;
7575;SDS011;3829;50.798;4.358;2023-02-14T14:39:39;35.10;;;19.10;;
7575;SDS011;3829;50.798;4.358;2023-02-14T14:42:11;39.33;;;21.17;;
7575;SDS011;3829;50.798;4.358;2023-02-14T14:44:43;38.83;;;20.60;;
7575;SDS011;3829;50.798;4.358;2023-02-14T14:47:16;35.60;;;18.93;;
7575;SDS011;3829;50.798;4.358;2023-02-14T14:49:45;35.50;;;20.00;;
7575;SDS011;3829;50.798;4.358;2023-02-14T14:52:16;37.33;;;19.83;;
7575;SDS011;3829;50.798;4.358;2023-02-14T14:54:51;37.27;;;20.53;;
7575;SDS011;3829;50.798;4.358;2023-02-14T14:57:17;42.60;;;20.60;;
7575;SDS011;3829;50.798;4.358;2023-02-14T14:59:43;42.83;;;20.73;;
7575;SDS011;3829;50.798;4.358;2023-02-14T15:02:19;34.30;;;18.43;;
7575;SDS011;3829;50.798;4.358;2023-02-14T15:04:48;36.93;;;19.30;;
7575;SDS011;3829;50.798;4.358;2023-02-14T15:07:27;43.97;;;19.27;;
7575;SDS011;3829;50.798;4.358;2023-02-14T15:09:57;33.90;;;19.20;;
7575;SDS011;3829;50.798;4.358;2023-02-14T15:12:24;38.47;;;19.90;;
7575;SDS011;3829;50.798;4.358;2023-02-14T15:15:09;32.40;;;19.50;;
7575;SDS011;3829;50.798;4.358;2023-02-14T15:17:38;38.07;;;20.07;;
7575;SDS011;3829;50.798;4.358;2023-02-14T15:20:12;36.77;;;19.63;;
7575;SDS011;3829;50.798;4.358;2023-02-14T15:22:43;38.47;;;18.60;;
7575;SDS011;3829;50.798;4.358;2023-02-14T15:25:27;41.17;;;19.83;;
7575;SDS011;3829;50.798;4.358;2023-02-14T15:27:59;36.43;;;19.47;;
7575;SDS011;3829;50.798;4.358;2023-02-14T15:30:30;40.23;;;20.27;;
7575;SDS011;3829;50.798;4.358;2023-02-14T15:33:02;40.33;;;20.23;;
7575;SDS011;3829;50.798;4.358;2023-02-14T15:35:33;38.70;;;21.63;;
7575;SDS011;3829;50.798;4.358;2023-02-14T15:38:03;34.87;;;19.97;;
7575;SDS011;3829;50.798;4.358;2023-02-14T15:40:31;37.83;;;20.27;;
7575;SDS011;3829;50.798;4.358;2023-02-14T15:43:20;31.03;;;19.00;;
7575;SDS011;3829;50.798;4.358;2023-02-14T15:45:51;43.37;;;22.13;;
7575;SDS011;3829;50.798;4.358;2023-02-14T15:50:58;33.80;;;19.83;;
7575;SDS011;3829;50.798;4.358;2023-02-14T15:56:42;35.87;;;19.93;;
7575;SDS011;3829;50.798;4.358;2023-02-14T16:01:57;43.53;;;20.03;;
7575;SDS011;3829;50.798;4.358;2023-02-14T16:04:26;46.17;;;20.60;;
7575;SDS011;3829;50.798;4.358;2023-02-14T16:07:05;31.63;;;19.63;;
7575;SDS011;3829;50.798;4.358;2023-02-14T16:09:44;34.70;;;19.57;;
7575;SDS011;3829;50.798;4.358;2023-02-14T16:12:11;42.87;;;20.53;;
7575;SDS011;3829;50.798;4.358;2023-02-14T16:17:41;43.10;;;20.17;;
7575;SDS011;3829;50.798;4.358;2023-02-14T16:20:21;37.30;;;19.90;;
7575;SDS011;3829;50.798;4.358;2023-02-14T16:22:55;39.67;;;20.87;;
7575;SDS011;3829;50.798;4.358;2023-02-14T16:25:51;39.83;;;19.23;;
7575;SDS011;3829;50.798;4.358;2023-02-14T16:28:21;38.43;;;20.27;;
7575;SDS011;3829;50.798;4.358;2023-02-14T16:30:47;38.50;;;20.50;;
7575;SDS011;3829;50.798;4.358;2023-02-14T16:33:22;40.57;;;20.53;;
7575;SDS011;3829;50.798;4.358;2023-02-14T16:35:51;37.17;;;18.37;;
7575;SDS011;3829;50.798;4.358;2023-02-14T16:38:17;39.47;;;21.10;;
7575;SDS011;3829;50.798;4.358;2023-02-14T16:40:51;39.43;;;19.97;;
7575;SDS011;3829;50.798;4.358;2023-02-14T16:43:18;40.33;;;21.73;;
7575;SDS011;3829;50.798;4.358;2023-02-14T16:45:44;40.40;;;21.40;;
7575;SDS011;3829;50.798;4.358;2023-02-14T16:48:11;36.53;;;20.97;;
7575;SDS011;3829;50.798;4.358;2023-02-14T16:50:37;37.43;;;20.50;;
7575;SDS011;3829;50.798;4.358;2023-02-14T16:53:09;37.80;;;20.27;;
7575;SDS011;3829;50.798;4.358;2023-02-14T16:55:47;41.67;;;21.63;;
7575;SDS011;3829;50.798;4.358;2023-02-14T16:58:14;46.37;;;20.77;;
7575;SDS011;3829;50.798;4.358;2023-02-14T17:00:39;35.23;;;19.33;;
7575;SDS011;3829;50.798;4.358;2023-02-14T17:03:06;46.37;;;22.57;;
7575;SDS011;3829;50.798;4.358;2023-02-14T17:05:31;43.27;;;22.27;;
7575;SDS011;3829;50.798;4.358;2023-02-14T17:07:59;42.33;;;20.97;;
7575;SDS011;3829;50.798;4.358;2023-02-14T17:10:26;47.03;;;22.17;;
7575;SDS011;3829;50.798;4.358;2023-02-14T17:12:52;42.53;;;22.53;;
7575;SDS011;3829;50.798;4.358;2023-02-14T17:15:21;39.63;;;20.57;;
7575;SDS011;3829;50.798;4.358;2023-02-14T17:17:49;36.20;;;19.90;;
7575;SDS011;3829;50.798;4.358;2023-02-14T17:20:19;38.00;;;19.63;;
7575;SDS011;3829;50.798;4.358;2023-02-14T17:22:46;40.80;;;20.67;;
7575;SDS011;3829;50.798;4.358;2023-02-14T17:25:12;40.77;;;20.53;;
7575;SDS011;3829;50.798;4.358;2023-02-14T17:27:38;40.30;;;21.60;;
7575;SDS011;3829;50.798;4.358;2023-02-14T17:30:08;39.73;;;20.57;;
7575;SDS011;3829;50.798;4.358;2023-02-14T17:32:34;42.23;;;21.37;;
7575;SDS011;3829;50.798;4.358;2023-02-14T17:35:00;40.37;;;20.37;;
7575;SDS011;3829;50.798;4.358;2023-02-14T17:37:27;51.43;;;22.57;;
7575;SDS011;3829;50.798;4.358;2023-02-14T17:39:53;41.80;;;21.20;;
7575;SDS011;3829;50.798;4.358;2023-02-14T17:42:19;40.70;;;22.57;;